Time;durP1;ratioP1;P1;durP2;ratioP2;P2;SDS_P1;SDS_P2;PMS_P1;PMS_P2;Temp;Humidity;BMP_temperature;BMP_pressure;BME280_temperature;BME280_humidity;BME280_pressure;Samples;Min_cycle;Max_cycle;Signal;HPM_P1;HPM_P2
2020/12/31 00:00:18;;;;;;;11.18;8.20;;;5.50;96.70;;;;;;4981338;28;20532;-71
2020/12/31 00:02:46;;;;;;;9.35;7.97;;;5.40;96.70;;;;;;4999263;28;20038;-71
2020/12/31 00:05:13;;;;;;;9.88;8.45;;;5.40;96.70;;;;;;4984112;28;20054;-70
2020/12/31 00:07:41;;;;;;;10.68;8.60;;;5.40;96.70;;;;;;4987316;28;20045;-71
2020/12/31 00:10:09;;;;;;;10.10;8.32;;;5.40;96.70;;;;;;4998897;28;20049;-71
2020/12/31 00:12:37;;;;;;;13.90;10.43;;;5.40;96.70;;;;;;4998480;28;20121;-71
2020/12/31 00:15:04;;;;;;;14.00;9.90;;;5.40;96.70;;;;;;4998655;28;20046;-72
2020/12/31 00:17:32;;;;;;;13.48;10.02;;;5.40;96.70;;;;;;4967818;28;20054;-71
2020/12/31 00:19:59;;;;;;;14.77;10.18;;;5.30;96.70;;;;;;5000026;28;20156;-71
2020/12/31 00:22:27;;;;;;;12.57;9.50;;;5.30;96.70;;;;;;4995329;28;20076;-71
2020/12/31 00:24:55;;;;;;;12.07;9.60;;;5.30;96.70;;;;;;4998652;28;20152;-71
2020/12/31 00:27:22;;;;;;;11.93;9.77;;;5.30;96.70;;;;;;4999517;28;20491;-71
2020/12/31 00:29:49;;;;;;;12.93;9.85;;;5.30;96.70;;;;;;5000383;28;20049;-71
2020/12/31 00:32:16;;;;;;;13.30;10.55;;;5.30;96.70;;;;;;4999594;28;20125;-71
2020/12/31 00:34:43;;;;;;;12.75;10.50;;;5.30;96.70;;;;;;4995452;28;20412;-70
2020/12/31 00:37:11;;;;;;;14.27;10.25;;;5.30;96.70;;;;;;4979773;28;20057;-71
2020/12/31 00:39:38;;;;;;;11.23;9.48;;;5.20;96.70;;;;;;5001798;28;20041;-71
2020/12/31 00:42:06;;;;;;;11.43;8.60;;;5.30;96.70;;;;;;4984766;28;20424;-71
2020/12/31 00:44:35;;;;;;;11.52;8.18;;;5.30;96.70;;;;;;4996311;28;20042;-71
2020/12/31 00:47:02;;;;;;;11.18;8.57;;;5.30;96.70;;;;;;4996803;28;20073;-71
2020/12/31 00:49:29;;;;;;;9.90;7.60;;;5.30;96.70;;;;;;4980516;28;20160;-71
2020/12/31 00:51:56;;;;;;;8.95;7.32;;;5.20;96.70;;;;;;4976145;28;20555;-72
2020/12/31 00:54:23;;;;;;;9.10;7.82;;;5.20;96.70;;;;;;4969744;28;20049;-71
2020/12/31 00:56:51;;;;;;;9.20;7.70;;;5.20;96.70;;;;;;4979652;28;20054;-71
2020/12/31 00:59:20;;;;;;;8.70;7.68;;;5.30;96.70;;;;;;4969488;28;20448;-71
2020/12/31 01:01:47;;;;;;;10.77;7.95;;;5.20;96.70;;;;;;4975544;28;20586;-71
2020/12/31 01:04:14;;;;;;;8.75;7.70;;;5.20;96.70;;;;;;4982376;28;21150;-71
2020/12/31 01:06:41;;;;;;;9.90;7.63;;;5.30;96.70;;;;;;5000545;28;20590;-70
2020/12/31 01:09:09;;;;;;;10.55;8.32;;;5.20;96.70;;;;;;4977998;28;20046;-72
2020/12/31 01:11:37;;;;;;;11.68;8.13;;;5.30;96.70;;;;;;4994245;28;20034;-72
2020/12/31 01:14:04;;;;;;;11.48;8.48;;;5.20;96.70;;;;;;4996076;28;20088;-71
2020/12/31 01:16:33;;;;;;;11.15;8.35;;;5.20;96.70;;;;;;4999594;28;20112;-71
2020/12/31 01:19:00;;;;;;;10.57;7.80;;;5.20;96.70;;;;;;4998659;28;20080;-71
2020/12/31 01:21:28;;;;;;;11.05;8.20;;;5.30;96.70;;;;;;4994755;28;20042;-72
2020/12/31 01:23:56;;;;;;;11.80;8.85;;;5.30;96.70;;;;;;4997708;28;20120;-72
2020/12/31 01:26:33;;;;;;;12.45;7.85;;;5.30;96.70;;;;;;4997299;28;20038;-72
2020/12/31 01:29:00;;;;;;;10.35;8.10;;;5.20;96.70;;;;;;4990660;28;20203;-71
2020/12/31 01:31:28;;;;;;;10.60;7.63;;;5.20;96.70;;;;;;4965254;28;20958;-70
2020/12/31 01:33:56;;;;;;;9.65;8.07;;;5.30;96.70;;;;;;4995486;28;20082;-71
2020/12/31 01:36:23;;;;;;;11.68;8.48;;;5.20;96.70;;;;;;4998232;28;20399;-71
2020/12/31 01:38:50;;;;;;;9.38;7.88;;;5.30;96.70;;;;;;4980836;28;20034;-72
2020/12/31 01:41:23;;;;;;;11.10;8.48;;;5.30;96.70;;;;;;4981728;28;20382;-71
2020/12/31 01:44:05;;;;;;;8.32;7.00;;;5.30;96.70;;;;;;4999154;28;20453;-71
2020/12/31 01:46:34;;;;;;;9.93;7.85;;;5.40;96.70;;;;;;4968406;28;20096;-71
2020/12/31 01:49:04;;;;;;;9.05;7.05;;;5.40;96.70;;;;;;4978904;28;20042;-71
2020/12/31 01:51:33;;;;;;;8.88;6.90;;;5.40;96.70;;;;;;4994037;28;20227;-71
2020/12/31 01:54:01;;;;;;;8.82;6.80;;;5.40;96.70;;;;;;4997526;28;20509;-71
2020/12/31 01:56:30;;;;;;;8.18;6.95;;;5.40;96.70;;;;;;5000322;28;20791;-71
2020/12/31 01:58:57;;;;;;;8.15;6.72;;;5.30;96.70;;;;;;4981482;28;20038;-72
2020/12/31 02:01:26;;;;;;;8.15;6.72;;;5.30;96.70;;;;;;4996214;28;20492;-71
2020/12/31 02:03:55;;;;;;;7.10;6.32;;;5.30;96.70;;;;;;4979866;28;20108;-70
2020/12/31 02:06:24;;;;;;;8.40;6.70;;;5.30;96.70;;;;;;4981453;28;20046;-71
2020/12/31 02:08:52;;;;;;;9.23;6.60;;;5.30;96.70;;;;;;4990337;28;20077;-72
2020/12/31 02:11:21;;;;;;;7.60;6.70;;;5.30;96.70;;;;;;4982292;28;20053;-71
2020/12/31 02:13:48;;;;;;;7.63;6.00;;;5.40;96.70;;;;;;4993746;28;20045;-72
2020/12/31 02:16:17;;;;;;;8.00;6.55;;;5.40;96.70;;;;;;4996108;28;20570;-71
2020/12/31 02:18:54;;;;;;;9.02;7.00;;;5.40;96.70;;;;;;4998542;28;20566;-71
2020/12/31 02:21:25;;;;;;;7.75;6.28;;;5.40;96.70;;;;;;4992202;28;20046;-71
2020/12/31 02:23:54;;;;;;;7.43;6.28;;;5.40;96.70;;;;;;4979648;28;20468;-72
2020/12/31 02:26:22;;;;;;;7.88;6.35;;;5.30;96.70;;;;;;4977346;28;20042;-71
2020/12/31 02:28:49;;;;;;;13.50;8.45;;;5.30;96.70;;;;;;4979257;28;20049;-71
2020/12/31 02:31:17;;;;;;;7.93;5.90;;;5.30;96.70;;;;;;4990484;28;20093;-72
2020/12/31 02:33:45;;;;;;;7.85;6.00;;;5.30;96.70;;;;;;4967299;28;20056;-71
2020/12/31 02:36:13;;;;;;;7.97;6.60;;;5.30;96.70;;;;;;4958532;28;20057;-71
2020/12/31 02:38:41;;;;;;;8.25;6.57;;;5.30;96.70;;;;;;4966752;28;20054;-72
2020/12/31 02:41:09;;;;;;;7.57;6.60;;;5.30;96.70;;;;;;4996024;28;20041;-71
2020/12/31 02:43:37;;;;;;;7.75;6.95;;;5.30;96.70;;;;;;4998785;28;20504;-71
2020/12/31 02:46:06;;;;;;;11.93;8.93;;;5.30;96.70;;;;;;4998696;28;20042;-71
2020/12/31 02:48:33;;;;;;;9.45;7.60;;;5.30;96.70;;;;;;4998248;28;20407;-71
2020/12/31 02:51:00;;;;;;;8.55;7.60;;;5.30;96.70;;;;;;4977902;28;20512;-71
2020/12/31 02:53:27;;;;;;;8.35;7.45;;;5.30;96.70;;;;;;4988232;28;20541;-70
2020/12/31 02:55:54;;;;;;;8.95;7.10;;;5.30;96.70;;;;;;4995505;28;20039;-71
2020/12/31 02:58:22;;;;;;;9.73;7.57;;;5.30;96.70;;;;;;4997109;28;20045;-71
2020/12/31 03:00:50;;;;;;;8.88;7.10;;;5.30;96.70;;;;;;4996010;28;20618;-70
2020/12/31 03:03:17;;;;;;;9.38;7.20;;;5.30;96.70;;;;;;4978023;28;20070;-71
2020/12/31 03:05:45;;;;;;;7.82;6.50;;;5.40;96.70;;;;;;4996727;28;20042;-70
2020/12/31 03:08:12;;;;;;;8.05;6.57;;;5.40;96.70;;;;;;4977866;28;20153;-71
2020/12/31 03:10:39;;;;;;;8.55;6.90;;;5.40;96.70;;;;;;4993036;28;20050;-71
2020/12/31 03:13:06;;;;;;;8.30;6.75;;;5.40;96.70;;;;;;4976852;28;20042;-71
2020/12/31 03:15:34;;;;;;;7.60;6.10;;;5.30;96.70;;;;;;4987752;28;20046;-72
2020/12/31 03:18:01;;;;;;;9.05;6.95;;;5.40;96.70;;;;;;4978892;28;20046;-72
2020/12/31 03:20:28;;;;;;;7.97;6.63;;;5.40;96.70;;;;;;4998948;28;20406;-71
2020/12/31 03:22:55;;;;;;;9.27;6.97;;;5.40;96.70;;;;;;4976069;28;20228;-71
2020/12/31 03:25:22;;;;;;;8.77;6.43;;;5.40;96.70;;;;;;4982387;28;20053;-71
2020/12/31 03:27:49;;;;;;;8.88;7.10;;;5.40;96.70;;;;;;4982394;28;20042;-71
2020/12/31 03:30:16;;;;;;;9.60;6.90;;;5.30;96.70;;;;;;4996297;28;20034;-71
2020/12/31 03:32:44;;;;;;;10.35;7.15;;;5.20;96.70;;;;;;4979069;28;20041;-71
2020/12/31 03:35:12;;;;;;;9.38;6.18;;;5.20;96.70;;;;;;5000680;28;20070;-71
2020/12/31 03:37:39;;;;;;;11.05;6.47;;;5.20;96.70;;;;;;4982754;28;20049;-71
2020/12/31 03:40:06;;;;;;;9.48;6.45;;;5.20;96.70;;;;;;4980791;28;20329;-70
2020/12/31 03:42:34;;;;;;;8.57;6.40;;;5.20;96.70;;;;;;4979100;28;20065;-71
2020/12/31 03:45:01;;;;;;;8.20;6.35;;;5.10;96.70;;;;;;4985071;28;20207;-71
2020/12/31 03:47:28;;;;;;;9.38;6.45;;;5.10;96.70;;;;;;4984081;28;20054;-71
2020/12/31 03:49:56;;;;;;;7.78;6.30;;;5.10;96.70;;;;;;4982247;28;20038;-71
2020/12/31 03:52:23;;;;;;;7.97;6.18;;;5.10;96.70;;;;;;4967620;28;20050;-71
2020/12/31 03:54:50;;;;;;;8.20;6.47;;;5.00;96.70;;;;;;5000736;28;20038;-71
2020/12/31 03:57:17;;;;;;;9.27;6.15;;;5.00;96.70;;;;;;4984601;28;20568;-71
2020/12/31 03:59:44;;;;;;;8.73;6.22;;;4.90;96.70;;;;;;4998931;28;20062;-71
2020/12/31 04:02:11;;;;;;;8.38;5.60;;;4.90;96.70;;;;;;4998197;28;20037;-71
2020/12/31 04:04:38;;;;;;;7.40;5.82;;;4.90;96.70;;;;;;4999249;28;20034;-71
2020/12/31 04:07:06;;;;;;;8.40;5.90;;;4.90;96.70;;;;;;4983889;28;20734;-72
2020/12/31 04:09:34;;;;;;;6.95;5.65;;;4.80;96.70;;;;;;4985048;28;20049;-72
2020/12/31 04:12:02;;;;;;;7.00;5.18;;;4.70;96.70;;;;;;4982237;28;20044;-71
2020/12/31 04:14:29;;;;;;;6.47;5.30;;;4.70;96.70;;;;;;4971112;28;20065;-71
2020/12/31 04:16:57;;;;;;;6.45;5.05;;;4.70;96.70;;;;;;4969450;28;20073;-71
2020/12/31 04:19:25;;;;;;;9.05;5.30;;;4.70;96.70;;;;;;4985727;28;20034;-72
2020/12/31 04:21:53;;;;;;;7.07;5.50;;;4.70;96.70;;;;;;4999834;28;20056;-71
2020/12/31 04:24:21;;;;;;;8.45;5.65;;;4.70;96.70;;;;;;4996043;28;20081;-71
2020/12/31 04:26:49;;;;;;;7.53;5.28;;;4.60;96.70;;;;;;4982710;28;20038;-71
2020/12/31 04:29:17;;;;;;;6.65;5.30;;;4.60;96.70;;;;;;5001632;28;20062;-71
2020/12/31 04:31:44;;;;;;;7.32;5.57;;;4.60;96.70;;;;;;5004299;28;20046;-74
2020/12/31 04:34:12;;;;;;;6.82;5.03;;;4.60;96.70;;;;;;4999597;28;20038;-74
2020/12/31 04:36:39;;;;;;;7.82;5.90;;;4.60;96.70;;;;;;4986002;28;20052;-74
2020/12/31 04:39:06;;;;;;;7.40;5.13;;;4.60;96.70;;;;;;4964752;28;20112;-73
2020/12/31 04:41:34;;;;;;;6.43;4.82;;;4.60;96.70;;;;;;4999378;28;20042;-74
2020/12/31 04:44:02;;;;;;;7.05;5.07;;;4.60;96.70;;;;;;5000201;28;20044;-74
2020/12/31 04:46:31;;;;;;;6.55;4.85;;;4.60;96.70;;;;;;4984678;28;20052;-74
2020/12/31 04:49:05;;;;;;;8.82;5.22;;;4.60;96.70;;;;;;4997410;28;20542;-73
2020/12/31 04:51:35;;;;;;;7.80;5.43;;;4.70;96.70;;;;;;4995202;28;20066;-74
2020/12/31 04:54:08;;;;;;;6.78;5.10;;;4.70;96.70;;;;;;4981963;28;20057;-74
2020/12/31 04:56:37;;;;;;;7.32;5.13;;;4.80;96.70;;;;;;5000844;28;20046;-74
2020/12/31 04:59:06;;;;;;;7.05;4.97;;;4.90;96.70;;;;;;4999104;28;20030;-74
2020/12/31 05:01:33;;;;;;;8.77;5.32;;;4.80;96.70;;;;;;4993776;28;20051;-74
2020/12/31 05:04:01;;;;;;;6.80;5.15;;;4.80;96.70;;;;;;4996722;28;20081;-74
2020/12/31 05:06:34;;;;;;;7.47;5.30;;;4.80;96.70;;;;;;4996192;28;20061;-73
2020/12/31 05:09:13;;;;;;;7.78;5.85;;;4.90;96.70;;;;;;4982404;28;20034;-73
2020/12/31 05:11:43;;;;;;;7.95;5.88;;;5.00;96.70;;;;;;5001811;28;20042;-74
2020/12/31 05:14:11;;;;;;;7.82;5.53;;;5.00;96.70;;;;;;5000079;28;20034;-74
2020/12/31 05:16:38;;;;;;;8.40;5.68;;;4.80;96.70;;;;;;4985221;28;20049;-74
2020/12/31 05:19:22;;;;;;;7.53;5.60;;;4.80;96.70;;;;;;4996026;28;20038;-74
2020/12/31 05:22:11;;;;;;;7.72;5.57;;;4.80;96.70;;;;;;4982518;28;20053;-73
2020/12/31 05:24:39;;;;;;;9.43;5.65;;;4.80;96.70;;;;;;4998652;28;20168;-74
2020/12/31 05:27:23;;;;;;;8.43;5.88;;;4.80;96.70;;;;;;4997227;28;20042;-74
2020/12/31 05:29:55;;;;;;;8.85;6.38;;;4.80;96.70;;;;;;4975658;28;20046;-74
2020/12/31 05:32:24;;;;;;;9.25;6.07;;;4.80;96.70;;;;;;4978109;28;20626;-74
2020/12/31 05:34:53;;;;;;;7.40;5.25;;;4.80;96.70;;;;;;4978957;28;20125;-74
2020/12/31 05:37:20;;;;;;;8.07;4.75;;;4.80;96.70;;;;;;4997002;28;20061;-73
2020/12/31 05:39:56;;;;;;;7.63;5.00;;;4.70;96.70;;;;;;4975274;28;20073;-75
2020/12/31 05:42:25;;;;;;;7.63;5.30;;;4.70;96.70;;;;;;4995696;28;20066;-74
2020/12/31 05:45:01;;;;;;;5.85;4.53;;;4.60;96.70;;;;;;4982461;28;20389;-74
2020/12/31 05:47:28;;;;;;;7.18;4.78;;;4.60;96.70;;;;;;4974291;28;20534;-74
2020/12/31 05:49:55;;;;;;;6.93;4.80;;;4.50;96.70;;;;;;4998429;28;20133;-74
2020/12/31 05:52:38;;;;;;;6.60;4.68;;;4.50;96.70;;;;;;4998619;28;20456;-73
2020/12/31 05:55:08;;;;;;;9.63;5.88;;;4.50;96.70;;;;;;4983493;28;20049;-73
2020/12/31 05:57:45;;;;;;;9.35;5.57;;;4.50;96.70;;;;;;4989722;28;20048;-74
2020/12/31 06:00:14;;;;;;;12.98;5.85;;;4.40;96.70;;;;;;4980435;28;20045;-74
2020/12/31 06:02:44;;;;;;;8.65;5.55;;;4.50;96.70;;;;;;4996928;28;20129;-74
2020/12/31 06:05:15;;;;;;;8.85;5.78;;;4.50;96.70;;;;;;4981198;28;20387;-74
2020/12/31 06:07:45;;;;;;;12.70;6.07;;;4.50;96.70;;;;;;4999833;28;20050;-74
2020/12/31 06:10:17;;;;;;;12.00;5.10;;;4.50;96.70;;;;;;4995264;28;20053;-74
2020/12/31 06:12:50;;;;;;;11.63;4.57;;;4.40;96.70;;;;;;4984454;28;20144;-74
2020/12/31 06:15:19;;;;;;;8.02;4.65;;;4.30;96.70;;;;;;4995923;28;20045;-74
2020/12/31 06:17:47;;;;;;;6.85;4.38;;;4.40;96.70;;;;;;4993884;28;20038;-73
2020/12/31 06:20:15;;;;;;;8.52;4.30;;;4.50;96.70;;;;;;4981815;28;20124;-74
2020/12/31 06:22:58;;;;;;;8.40;3.80;;;4.50;96.70;;;;;;4997141;28;20531;-74
2020/12/31 06:25:33;;;;;;;4.85;3.10;;;4.40;96.70;;;;;;4977137;28;20101;-73
2020/12/31 06:28:07;;;;;;;6.60;3.90;;;4.30;96.70;;;;;;4996411;28;20481;-74
2020/12/31 06:30:36;;;;;;;5.28;3.65;;;4.30;96.70;;;;;;4996711;28;20041;-74
2020/12/31 06:33:10;;;;;;;4.95;2.95;;;4.40;96.70;;;;;;4970841;28;20066;-73
2020/12/31 06:35:42;;;;;;;5.85;3.05;;;4.40;96.70;;;;;;4997555;28;20125;-74
2020/12/31 06:38:10;;;;;;;4.88;3.20;;;4.50;96.70;;;;;;4995079;28;20060;-74
2020/12/31 06:40:37;;;;;;;6.70;3.67;;;4.50;96.70;;;;;;4980452;28;20073;-74
2020/12/31 06:43:09;;;;;;;7.03;3.90;;;4.50;96.70;;;;;;4978149;28;20575;-74
2020/12/31 06:45:42;;;;;;;5.38;3.85;;;4.40;96.70;;;;;;4985917;28;20584;-74
2020/12/31 06:48:39;;;;;;;8.50;4.03;;;4.40;96.70;;;;;;4989014;28;20113;-74
2020/12/31 06:51:07;;;;;;;;;;;4.40;96.70;;;;;;4989748;28;20456;-73
2020/12/31 06:53:38;;;;;;;4.60;2.83;;;4.50;96.70;;;;;;4995230;28;19925;-74
2020/12/31 06:56:07;;;;;;;3.88;2.97;;;4.50;96.70;;;;;;4996821;28;20042;-73
2020/12/31 06:58:37;;;;;;;4.47;2.95;;;4.50;96.70;;;;;;4981676;28;20185;-73
2020/12/31 07:01:23;;;;;;;4.63;3.08;;;4.40;96.70;;;;;;4970687;28;20397;-74
2020/12/31 07:03:51;;;;;;;5.00;3.45;;;4.40;96.70;;;;;;5002383;28;20053;-74
2020/12/31 07:06:26;;;;;;;7.85;3.80;;;4.30;96.70;;;;;;4984468;28;20053;-73
2020/12/31 07:08:55;;;;;;;6.53;3.40;;;4.30;96.70;;;;;;4996428;28;20041;-74
2020/12/31 07:11:31;;;;;;;4.30;2.80;;;4.20;96.70;;;;;;4996851;28;20132;-74
2020/12/31 07:13:59;;;;;;;6.13;3.55;;;4.20;96.70;;;;;;4982044;28;20046;-74
2020/12/31 07:16:45;;;;;;;8.73;4.10;;;4.20;96.70;;;;;;4983760;28;20111;-74
2020/12/31 07:19:12;;;;;;;6.75;4.07;;;4.20;96.70;;;;;;4998545;28;20053;-74
2020/12/31 07:21:39;;;;;;;8.02;4.95;;;4.20;96.70;;;;;;4984644;28;20069;-74
2020/12/31 07:24:23;;;;;;;8.18;5.03;;;4.20;96.70;;;;;;5000178;28;20463;-74
2020/12/31 07:26:53;;;;;;;7.97;5.35;;;4.10;96.70;;;;;;4996451;28;20123;-74
2020/12/31 07:29:36;;;;;;;8.05;4.90;;;4.20;96.70;;;;;;4982732;28;20041;-73
2020/12/31 07:32:03;;;;;;;9.27;5.88;;;4.30;96.70;;;;;;4996669;28;20042;-73
2020/12/31 07:34:32;;;;;;;8.75;5.55;;;4.30;96.70;;;;;;5002381;28;20069;-73
2020/12/31 07:37:02;;;;;;;11.63;5.90;;;4.30;96.70;;;;;;4999032;28;20802;-74
2020/12/31 07:39:30;;;;;;;10.32;6.65;;;4.30;96.70;;;;;;4984562;28;20076;-74
2020/12/31 07:42:14;;;;;;;8.55;4.70;;;4.30;96.70;;;;;;4999403;28;20452;-74
2020/12/31 07:44:51;;;;;;;6.47;4.45;;;4.40;96.70;;;;;;4997122;28;20849;-74
2020/12/31 07:47:19;;;;;;;7.68;5.03;;;4.40;96.70;;;;;;4985104;28;20108;-74
2020/12/31 07:49:47;;;;;;;9.43;5.55;;;4.50;96.70;;;;;;5002643;28;20116;-74
2020/12/31 07:52:15;;;;;;;7.32;4.75;;;4.50;96.70;;;;;;4981041;28;20575;-73
2020/12/31 07:54:42;;;;;;;8.30;5.10;;;4.60;96.70;;;;;;4981657;28;20085;-74
2020/12/31 07:57:10;;;;;;;9.75;6.30;;;4.60;96.70;;;;;;4997603;28;20522;-74
2020/12/31 07:59:42;;;;;;;10.18;6.53;;;4.60;96.70;;;;;;5000979;28;20043;-73
2020/12/31 08:02:11;;;;;;;12.20;7.65;;;4.60;96.70;;;;;;4996850;28;20034;-73
2020/12/31 08:04:38;;;;;;;12.70;6.15;;;4.60;96.70;;;;;;4997403;28;20089;-74
2020/12/31 08:07:14;;;;;;;8.60;5.63;;;4.70;96.70;;;;;;4970172;28;20041;-74
2020/12/31 08:09:43;;;;;;;9.75;5.43;;;4.60;96.70;;;;;;4999284;28;20041;-74
2020/12/31 08:12:11;;;;;;;9.38;5.60;;;4.70;96.70;;;;;;4979014;28;20070;-74
2020/12/31 08:14:40;;;;;;;12.65;5.78;;;4.70;96.70;;;;;;5001065;28;20124;-74
2020/12/31 08:17:09;;;;;;;11.63;5.28;;;4.70;96.70;;;;;;4999808;28;20056;-74
2020/12/31 08:19:38;;;;;;;6.97;4.43;;;4.80;96.70;;;;;;4997390;28;20066;-75
2020/12/31 08:22:16;;;;;;;10.10;4.47;;;4.80;96.70;;;;;;4997152;28;20074;-73
2020/12/31 08:24:48;;;;;;;8.85;4.28;;;4.70;96.70;;;;;;4998175;28;20050;-73
2020/12/31 08:27:19;;;;;;;9.15;4.32;;;4.70;96.70;;;;;;5002242;28;20056;-73
2020/12/31 08:29:47;;;;;;;13.13;6.00;;;4.70;96.70;;;;;;4994564;28;20072;-72
2020/12/31 08:32:23;;;;;;;11.27;5.00;;;4.70;96.70;;;;;;4975708;28;20052;-73
2020/12/31 08:34:57;;;;;;;10.18;6.88;;;4.80;96.70;;;;;;4981239;28;20049;-73
2020/12/31 08:37:27;;;;;;;13.93;5.68;;;4.80;96.70;;;;;;4985646;28;20440;-73
2020/12/31 08:39:56;;;;;;;10.15;5.63;;;4.90;96.70;;;;;;4998202;28;20125;-74
2020/12/31 08:42:25;;;;;;;14.43;6.10;;;4.90;96.70;;;;;;5000194;28;20042;-74
2020/12/31 08:44:55;;;;;;;17.30;6.18;;;4.80;96.70;;;;;;4992429;28;20091;-74
2020/12/31 08:47:24;;;;;;;9.15;5.63;;;4.90;96.70;;;;;;4996683;28;20293;-74
2020/12/31 08:49:53;;;;;;;11.48;6.68;;;5.00;96.70;;;;;;4994631;28;20042;-73
2020/12/31 08:52:26;;;;;;;23.02;6.70;;;5.00;96.70;;;;;;4998215;28;20035;-74
2020/12/31 08:55:08;;;;;;;15.30;7.18;;;5.10;96.70;;;;;;4980487;28;20410;-74
2020/12/31 08:57:36;;;;;;;11.02;6.32;;;5.10;96.70;;;;;;4979725;28;20037;-74
2020/12/31 09:00:05;;;;;;;15.27;6.65;;;5.10;96.70;;;;;;4981107;28;20038;-74
2020/12/31 09:02:32;;;;;;;10.48;6.70;;;5.20;96.70;;;;;;4986176;28;20422;-76
2020/12/31 09:05:15;;;;;;;10.05;6.35;;;5.30;96.70;;;;;;4993244;28;20045;-73
2020/12/31 09:07:44;;;;;;;9.77;5.82;;;5.20;96.70;;;;;;5001380;28;20077;-74
2020/12/31 09:10:13;;;;;;;10.63;6.10;;;5.30;96.70;;;;;;4999975;28;20046;-74
2020/12/31 09:12:40;;;;;;;9.20;5.88;;;5.30;96.70;;;;;;4972003;28;20446;-74
2020/12/31 09:15:16;;;;;;;10.40;5.78;;;5.30;96.70;;;;;;4996866;28;20774;-73
2020/12/31 09:17:44;;;;;;;9.85;5.93;;;5.30;96.70;;;;;;4985346;28;20600;-75
2020/12/31 09:20:20;;;;;;;11.02;6.38;;;5.20;96.70;;;;;;4998566;28;20113;-74
2020/12/31 09:22:49;;;;;;;8.90;5.85;;;5.20;96.70;;;;;;4977245;28;20114;-74
2020/12/31 09:25:17;;;;;;;8.05;5.50;;;5.20;96.70;;;;;;4995899;28;20053;-74
2020/12/31 09:27:46;;;;;;;8.90;5.78;;;5.20;96.70;;;;;;4988841;28;20049;-72
2020/12/31 09:30:15;;;;;;;9.52;5.85;;;5.40;96.70;;;;;;4996287;28;20045;-73
2020/12/31 09:32:50;;;;;;;8.30;5.63;;;5.40;96.70;;;;;;4994807;28;20557;-73
2020/12/31 09:35:17;;;;;;;10.27;6.78;;;5.50;96.70;;;;;;4994261;28;20042;-74
2020/12/31 09:37:49;;;;;;;9.32;6.03;;;5.50;96.70;;;;;;4997704;28;20373;-71
2020/12/31 09:40:17;;;;;;;10.30;6.90;;;5.60;96.70;;;;;;4985529;28;20050;-74
2020/12/31 09:42:45;;;;;;;8.82;6.07;;;5.50;96.70;;;;;;4994950;28;20041;-76
2020/12/31 09:45:13;;;;;;;9.25;5.90;;;5.50;96.70;;;;;;4985403;28;20140;-77
2020/12/31 09:47:41;;;;;;;10.15;6.50;;;5.60;96.70;;;;;;4981958;28;20496;-75
2020/12/31 09:50:10;;;;;;;9.35;5.80;;;5.70;96.70;;;;;;5002988;28;20500;-75
2020/12/31 09:52:38;;;;;;;9.00;5.55;;;5.70;96.70;;;;;;4992439;28;20405;-76
2020/12/31 09:55:23;;;;;;;9.07;6.07;;;5.70;96.70;;;;;;4995221;28;20068;-75
2020/12/31 09:57:51;;;;;;;10.18;6.65;;;5.70;96.70;;;;;;4994073;28;20469;-75
2020/12/31 10:00:18;;;;;;;14.52;9.18;;;5.80;96.70;;;;;;4989848;28;20042;-75
2020/12/31 10:02:45;;;;;;;140.75;86.75;;;5.80;96.70;;;;;;4978309;28;20041;-75
2020/12/31 10:05:13;;;;;;;117.85;78.43;;;5.90;96.70;;;;;;5002328;28;20260;-75
2020/12/31 10:07:40;;;;;;;13.48;9.50;;;6.00;96.70;;;;;;4983319;28;20044;-75
2020/12/31 10:10:07;;;;;;;26.17;11.38;;;6.00;96.70;;;;;;4999631;28;20042;-76
2020/12/31 10:12:35;;;;;;;12.63;8.73;;;6.00;96.70;;;;;;5001065;28;20159;-75
2020/12/31 10:15:03;;;;;;;11.27;7.68;;;6.10;96.70;;;;;;4998694;28;20116;-75
2020/12/31 10:17:30;;;;;;;12.60;7.93;;;6.20;96.70;;;;;;4998640;28;20121;-74
2020/12/31 10:19:58;;;;;;;11.70;7.20;;;6.30;96.70;;;;;;4979750;28;20149;-75
2020/12/31 10:22:25;;;;;;;9.27;7.15;;;6.50;96.70;;;;;;4997577;28;20054;-75
2020/12/31 10:24:52;;;;;;;9.63;7.28;;;6.60;96.70;;;;;;4982823;28;20085;-76
2020/12/31 10:27:20;;;;;;;8.95;6.28;;;6.60;96.70;;;;;;4994443;28;20522;-77
2020/12/31 10:29:48;;;;;;;10.02;7.20;;;6.50;96.70;;;;;;4998619;28;20129;-75
2020/12/31 10:32:15;;;;;;;9.80;7.25;;;6.40;96.70;;;;;;4998066;28;20057;-76
2020/12/31 10:34:43;;;;;;;10.07;6.68;;;6.30;96.70;;;;;;4997773;28;20237;-75
2020/12/31 10:37:10;;;;;;;10.18;6.43;;;6.30;96.70;;;;;;4997270;28;20115;-72
2020/12/31 10:39:37;;;;;;;10.88;6.97;;;6.40;96.70;;;;;;4984572;28;20049;-75
2020/12/31 10:42:06;;;;;;;12.43;7.57;;;6.40;96.70;;;;;;4983239;28;20042;-73
2020/12/31 10:44:34;;;;;;;10.05;7.05;;;6.50;96.70;;;;;;5000894;28;20072;-74
2020/12/31 10:47:02;;;;;;;9.77;7.47;;;6.50;96.70;;;;;;4987048;28;20400;-75
2020/12/31 10:49:29;;;;;;;12.30;8.60;;;6.50;96.70;;;;;;4981586;28;20050;-75
2020/12/31 10:51:56;;;;;;;11.68;8.65;;;6.40;96.70;;;;;;4978325;28;20042;-75
2020/12/31 10:54:24;;;;;;;16.00;10.23;;;6.50;96.70;;;;;;4995789;28;20070;-75
2020/12/31 10:56:57;;;;;;;16.00;11.90;;;6.50;96.70;;;;;;4995229;28;20287;-75
2020/12/31 10:59:26;;;;;;;22.98;15.30;;;6.60;96.70;;;;;;4980455;28;20048;-74
2020/12/31 11:01:53;;;;;;;19.67;14.18;;;6.60;96.70;;;;;;4995203;28;20463;-74
2020/12/31 11:04:22;;;;;;;17.45;11.20;;;6.60;96.70;;;;;;4984858;28;20048;-75
2020/12/31 11:06:49;;;;;;;16.15;10.77;;;6.60;96.70;;;;;;4984327;28;20069;-74
2020/12/31 11:09:16;;;;;;;12.23;9.23;;;6.60;96.70;;;;;;4978139;28;20503;-75
2020/12/31 11:11:44;;;;;;;12.90;9.90;;;6.50;96.70;;;;;;4983217;28;20041;-74
2020/12/31 11:14:11;;;;;;;17.00;12.20;;;6.60;96.70;;;;;;4978590;28;20420;-74
2020/12/31 11:16:39;;;;;;;16.83;11.60;;;6.60;96.70;;;;;;4977433;28;20121;-74
2020/12/31 11:19:07;;;;;;;14.05;10.35;;;6.60;96.70;;;;;;4963328;28;20075;-75
2020/12/31 11:21:35;;;;;;;13.98;9.70;;;6.70;96.70;;;;;;4998394;28;20038;-74
2020/12/31 11:24:02;;;;;;;11.60;8.80;;;6.70;96.70;;;;;;4985869;28;20073;-75
2020/12/31 11:26:30;;;;;;;11.48;8.25;;;6.70;96.70;;;;;;4997260;28;20048;-74
2020/12/31 11:28:58;;;;;;;12.73;9.63;;;6.70;96.70;;;;;;4994889;28;20456;-74
2020/12/31 11:31:26;;;;;;;11.88;8.27;;;6.70;96.70;;;;;;4993848;28;20044;-73
2020/12/31 11:33:55;;;;;;;13.98;9.35;;;6.80;96.70;;;;;;4995921;28;20470;-74
2020/12/31 11:36:27;;;;;;;11.82;9.10;;;6.80;96.70;;;;;;4997870;28;20049;-74
2020/12/31 11:38:56;;;;;;;12.10;8.68;;;6.80;96.70;;;;;;4994904;28;20050;-74
2020/12/31 11:41:24;;;;;;;12.80;7.72;;;6.90;96.70;;;;;;4992979;28;20046;-74
2020/12/31 11:43:52;;;;;;;8.88;6.63;;;6.90;96.70;;;;;;4977738;28;20507;-73
2020/12/31 11:46:20;;;;;;;8.23;6.25;;;6.90;96.70;;;;;;4983514;28;20038;-73
2020/12/31 11:48:47;;;;;;;8.73;6.15;;;6.90;96.70;;;;;;4984760;28;20045;-74
2020/12/31 11:51:15;;;;;;;7.63;5.30;;;6.80;96.70;;;;;;4961256;28;20302;-74
2020/12/31 11:53:43;;;;;;;6.70;5.50;;;6.80;96.70;;;;;;4980123;28;20111;-74
2020/12/31 11:56:11;;;;;;;8.25;6.50;;;7.00;96.70;;;;;;4968125;28;20121;-74
2020/12/31 11:58:39;;;;;;;9.57;7.05;;;7.10;96.70;;;;;;4979849;28;20046;-74
2020/12/31 12:01:07;;;;;;;9.85;7.18;;;7.10;96.70;;;;;;4995543;28;20053;-74
2020/12/31 12:03:36;;;;;;;9.57;7.28;;;7.20;96.70;;;;;;4980273;28;20324;-73
2020/12/31 12:06:08;;;;;;;8.55;6.35;;;7.20;96.70;;;;;;4980288;28;20060;-74
2020/12/31 12:08:35;;;;;;;9.02;6.03;;;7.20;96.70;;;;;;4987533;28;20582;-74
2020/12/31 12:11:04;;;;;;;8.45;6.25;;;7.10;96.70;;;;;;4995983;28;20042;-74
2020/12/31 12:13:33;;;;;;;7.15;5.40;;;7.10;96.70;;;;;;4997722;28;20038;-73
2020/12/31 12:16:00;;;;;;;6.57;4.97;;;7.00;96.70;;;;;;4986647;28;20060;-73
2020/12/31 12:18:27;;;;;;;6.97;5.65;;;6.90;96.70;;;;;;5001778;28;20061;-73
2020/12/31 12:21:01;;;;;;;8.50;5.88;;;7.00;96.70;;;;;;4997241;28;20049;-75
2020/12/31 12:23:28;;;;;;;8.50;6.82;;;7.00;96.70;;;;;;4971363;28;20050;-73
2020/12/31 12:25:55;;;;;;;9.52;6.82;;;7.10;96.70;;;;;;4999720;28;20146;-73
2020/12/31 12:28:23;;;;;;;7.72;5.78;;;7.10;96.70;;;;;;5003045;28;20482;-76
2020/12/31 12:30:51;;;;;;;6.60;5.28;;;7.10;96.70;;;;;;4999007;28;20069;-72
2020/12/31 12:33:18;;;;;;;7.43;5.68;;;7.20;96.70;;;;;;4997203;28;20393;-74
2020/12/31 12:35:46;;;;;;;9.25;6.43;;;7.10;96.70;;;;;;4966084;28;20037;-74
2020/12/31 12:38:13;;;;;;;8.60;6.22;;;7.10;96.70;;;;;;5004722;28;20052;-74
2020/12/31 12:40:41;;;;;;;8.27;5.65;;;7.00;96.70;;;;;;4996821;28;20553;-75
2020/12/31 12:43:08;;;;;;;8.63;6.40;;;7.00;96.70;;;;;;4967937;28;20099;-77
2020/12/31 12:45:35;;;;;;;9.70;6.15;;;7.00;96.70;;;;;;4988012;28;20518;-75
2020/12/31 12:48:05;;;;;;;8.73;5.95;;;7.00;96.70;;;;;;4988822;28;20069;-79
2020/12/31 12:50:32;;;;;;;8.13;6.30;;;7.00;96.70;;;;;;4999514;28;20100;-74
2020/12/31 12:52:59;;;;;;;8.40;5.78;;;7.00;96.70;;;;;;4997649;28;20515;-75
2020/12/31 12:55:27;;;;;;;15.80;10.70;;;7.00;96.70;;;;;;4994820;28;20049;-73
2020/12/31 12:57:54;;;;;;;22.85;15.27;;;7.10;96.70;;;;;;4997836;28;20124;-73
2020/12/31 13:00:22;;;;;;;15.32;10.00;;;7.00;96.70;;;;;;4998532;28;20053;-74
2020/12/31 13:02:50;;;;;;;19.73;14.27;;;7.10;96.70;;;;;;4999746;28;20389;-73